Time;durP1;ratioP1;P1;durP2;ratioP2;P2;SDS_P1;SDS_P2;PMS_P1;PMS_P2;Temp;Humidity;BMP_temperature;BMP_pressure;BME280_temperature;BME280_humidity;BME280_pressure;Samples;Min_cycle;Max_cycle;Signal;HPM_P1;HPM_P2
2021/05/18 00:01:49;;;;;;;12.02;3.30;;;;;;;14.39;56.30;99696.00;5342472;26;20448;-82
2021/05/18 00:04:18;;;;;;;7.75;3.40;;;;;;;14.47;56.01;99704.53;5342635;26;20684;-82
2021/05/18 00:06:47;;;;;;;8.15;3.03;;;;;;;14.41;56.64;99702.97;5342374;26;20418;-81
2021/05/18 00:12:00;;;;;;;8.15;3.08;;;;;;;14.21;56.03;99702.75;5342273;26;20391;-82
2021/05/18 00:14:28;;;;;;;4.32;2.70;;;;;;;14.27;56.27;99706.06;5340865;26;20448;-82
2021/05/18 00:16:55;;;;;;;3.10;2.20;;;;;;;13.99;57.66;99711.31;5342246;26;20426;-79
2021/05/18 00:19:22;;;;;;;6.12;2.75;;;;;;;14.19;56.57;99702.78;5342500;26;20060;-82
2021/05/18 00:21:49;;;;;;;6.95;3.00;;;;;;;14.21;56.32;99702.75;5342409;26;20071;-82
2021/05/18 00:24:17;;;;;;;8.15;3.58;;;;;;;14.10;56.69;99713.63;5342683;26;20450;-82
2021/05/18 00:26:44;;;;;;;4.87;2.53;;;;;;;13.83;57.67;99721.50;5340935;26;20520;-82
2021/05/18 00:29:11;;;;;;;6.15;2.40;;;;;;;14.02;57.35;99718.28;5341975;26;20080;-81
2021/05/18 00:31:38;;;;;;;6.18;2.97;;;;;;;12.77;62.09;99715.62;5340743;26;20064;-82
2021/05/18 00:34:05;;;;;;;4.72;2.65;;;;;;;13.25;61.14;99717.00;5340994;26;20096;-82
2021/05/18 00:36:32;;;;;;;4.30;2.47;;;;;;;13.48;60.09;99719.03;5342184;26;20151;-79
2021/05/18 00:38:59;;;;;;;11.05;3.10;;;;;;;13.53;59.33;99719.72;5359336;26;20071;-81
2021/05/18 00:41:27;;;;;;;4.72;2.70;;;;;;;13.68;58.84;99726.34;5342162;26;20065;-81
2021/05/18 00:43:54;;;;;;;3.92;2.30;;;;;;;13.51;59.28;99719.78;5342230;26;20064;-82
2021/05/18 00:46:23;;;;;;;9.27;3.35;;;;;;;13.59;58.71;99719.59;5342192;26;20416;-82
2021/05/18 00:48:56;;;;;;;5.95;2.92;;;;;;;13.58;58.38;99725.75;5341232;26;20057;-80
2021/05/18 00:51:27;;;;;;;4.68;2.50;;;;;;;13.49;58.34;99721.59;5340799;26;20144;-82
2021/05/18 00:53:56;;;;;;;4.18;2.53;;;;;;;13.60;57.91;99730.09;5342445;26;20462;-81
2021/05/18 00:59:01;;;;;;;7.80;1.83;;;;;;;13.65;57.24;99735.25;5341912;26;20433;-80
2021/05/18 01:01:29;;;;;;;9.57;2.25;;;;;;;13.69;57.32;99730.72;5340854;26;20113;-82
2021/05/18 01:03:56;;;;;;;6.72;2.67;;;;;;;12.57;62.49;99736.34;5342360;26;20075;-80
2021/05/18 01:06:28;;;;;;;7.05;1.90;;;;;;;13.16;60.16;99744.47;5342109;26;20053;-82
2021/05/18 01:08:59;;;;;;;7.43;1.42;;;;;;;13.09;59.91;99742.94;5342709;26;20060;-81
2021/05/18 01:11:31;;;;;;;4.30;1.75;;;;;;;12.99;59.15;99741.41;5341144;26;20531;-82
2021/05/18 01:14:02;;;;;;;7.22;1.42;;;;;;;13.03;59.32;99749.22;5342590;26;20470;-82
2021/05/18 01:16:32;;;;;;;5.05;2.30;;;;;;;12.82;59.53;99742.72;5342515;26;20110;-82
2021/05/18 01:18:59;;;;;;;4.00;2.80;;;;;;;12.61;58.94;99748.53;5342597;26;20441;-82
2021/05/18 01:21:27;;;;;;;2.47;1.02;;;;;;;12.40;59.31;99755.19;5340863;26;20112;-80
2021/05/18 01:23:54;;;;;;;1.08;0.90;;;;;;;12.59;57.88;99750.31;5341279;26;20061;-80
2021/05/18 01:26:22;;;;;;;1.20;0.60;;;;;;;12.55;58.28;99759.22;5342486;26;20052;-80
2021/05/18 01:28:50;;;;;;;5.80;2.65;;;;;;;12.56;58.06;99746.03;5342948;26;20051;-80
2021/05/18 01:31:24;;;;;;;6.78;3.80;;;;;;;12.68;57.93;99750.13;5342598;26;20056;-80
2021/05/18 01:33:53;;;;;;;11.32;3.40;;;;;;;12.86;57.59;99751.44;5341272;26;20064;-79
2021/05/18 01:36:22;;;;;;;3.55;1.92;;;;;;;12.82;57.58;99744.47;5342385;26;20058;-80
2021/05/18 01:38:58;;;;;;;9.13;2.83;;;;;;;11.55;63.40;99759.59;5341018;26;20045;-80
2021/05/18 01:44:11;;;;;;;2.83;1.80;;;;;;;12.82;59.63;99755.88;5342627;26;20088;-82
2021/05/18 01:46:40;;;;;;;3.83;1.83;;;;;;;12.81;59.24;99759.44;5359481;26;20637;-81
2021/05/18 01:49:10;;;;;;;8.90;2.58;;;;;;;12.53;58.97;99753.09;5341288;26;20068;-79
2021/05/18 01:51:38;;;;;;;;;;;;;;;12.69;58.84;99765.88;5341176;26;20418;-81
2021/05/18 01:54:11;;;;;;;3.83;1.65;;;;;;;12.74;59.53;99765.78;5342666;26;20021;-81
2021/05/18 01:56:46;;;;;;;3.37;2.12;;;;;;;12.46;61.14;99770.84;5341264;26;20062;-82
2021/05/18 01:59:24;;;;;;;4.57;2.00;;;;;;;12.20;62.23;99768.78;5342606;26;20074;-81
2021/05/18 02:01:54;;;;;;;5.20;2.30;;;;;;;11.72;63.06;99779.47;5340879;26;20513;-79
2021/05/18 02:04:23;;;;;;;;;;;;;;;12.14;61.92;99782.09;5341338;26;20061;-81
2021/05/18 02:06:50;;;;;;;3.35;1.95;;;;;;;11.60;63.72;99780.56;5342547;26;19969;-82
2021/05/18 02:09:18;;;;;;;5.25;1.67;;;;;;;11.65;63.21;99790.97;5342701;26;20072;-82
2021/05/18 02:11:45;;;;;;;4.87;1.52;;;;;;;11.80;62.97;99782.81;5341904;26;20076;-80
2021/05/18 02:14:21;;;;;;;2.33;1.10;;;;;;;11.66;63.10;99793.59;5342401;26;20137;-81
2021/05/18 02:16:49;;;;;;;2.47;0.80;;;;;;;12.18;61.31;99792.56;5340867;26;20052;-82
2021/05/18 02:19:32;;;;;;;3.42;0.70;;;;;;;10.75;66.17;99788.25;5342485;26;20056;-80
2021/05/18 02:24:37;;;;;;;3.92;1.67;;;;;;;11.06;65.71;99786.84;5342411;26;20057;-81
2021/05/18 02:25:08;;;;;;;2.28;0.60;;;;;;;10.58;68.74;99791.12;5342498;26;20088;-82
2021/05/18 02:27:36;;;;;;;1.77;0.82;;;;;;;10.85;67.38;99792.44;5342037;26;20081;-82
2021/05/18 02:30:05;;;;;;;2.92;0.93;;;;;;;11.45;65.33;99794.87;5342140;26;20460;-81
2021/05/18 02:32:32;;;;;;;1.12;0.50;;;;;;;11.37;64.75;99804.69;5340628;26;20120;-81
2021/05/18 02:34:59;;;;;;;1.40;0.32;;;;;;;11.50;64.29;99803.56;5340885;26;20092;-80
2021/05/18 02:37:26;;;;;;;1.27;0.20;;;;;;;11.79;62.62;99792.47;5340702;26;20083;-80
2021/05/18 02:39:53;;;;;;;0.55;0.20;;;;;;;11.91;61.67;99804.56;5340551;26;20108;-81
2021/05/18 02:42:20;;;;;;;1.58;0.22;;;;;;;12.16;61.23;99814.56;5341926;26;20386;-80
2021/05/18 02:50:01;;;;;;;1.45;0.32;;;;;;;12.70;58.77;99803.66;5342003;26;20416;-80
2021/05/18 02:52:29;;;;;;;6.43;0.60;;;;;;;12.85;58.27;99812.94;5342054;26;20060;-78
2021/05/18 02:54:56;;;;;;;2.65;1.40;;;;;;;12.81;58.37;99795.50;5359363;26;20411;-81
2021/05/18 02:57:35;;;;;;;4.93;2.20;;;;;;;12.72;58.30;99807.97;5341895;26;20053;-81
2021/05/18 03:00:05;;;;;;;1.12;0.80;;;;;;;13.10;57.23;99813.22;5340691;26;20047;-81
2021/05/18 03:02:32;;;;;;;2.87;0.62;;;;;;;13.21;56.70;99811.19;5340485;26;20586;-81
2021/05/18 03:05:00;;;;;;;1.08;0.37;;;;;;;13.21;56.93;99821.72;5341817;26;20060;-81
2021/05/18 03:07:27;;;;;;;2.00;0.57;;;;;;;12.98;57.21;99832.00;5341839;26;20534;-82
2021/05/18 03:09:58;;;;;;;1.65;0.77;;;;;;;13.20;57.18;99825.25;5341777;26;20044;-81
2021/05/18 03:12:27;;;;;;;2.25;0.50;;;;;;;13.24;56.57;99836.62;5341683;26;20152;-81
2021/05/18 03:14:55;;;;;;;0.97;0.50;;;;;;;13.22;57.44;99826.09;5341805;26;20087;-81
2021/05/18 03:17:22;;;;;;;1.55;0.45;;;;;;;13.40;57.07;99833.56;5341434;26;20541;-81
2021/05/18 03:19:49;;;;;;;1.05;0.43;;;;;;;13.31;56.74;99833.78;5341499;26;20057;-81
2021/05/18 03:22:17;;;;;;;3.30;0.80;;;;;;;13.54;56.63;99829.69;5340744;26;20129;-81
2021/05/18 03:24:44;;;;;;;1.80;0.47;;;;;;;13.64;56.85;99823.25;5342567;26;20111;-79
2021/05/18 03:27:11;;;;;;;4.40;0.43;;;;;;;13.75;56.22;99828.25;5342200;26;20406;-79
2021/05/18 03:29:39;;;;;;;0.75;0.30;;;;;;;13.92;55.95;99827.78;5342661;26;20098;-82
2021/05/18 03:34:52;;;;;;;2.03;0.37;;;;;;;14.07;55.39;99828.19;5342545;26;20115;-81
2021/05/18 03:37:25;;;;;;;0.95;0.57;;;;;;;13.94;55.50;99828.56;5341148;26;20158;-81
2021/05/18 03:39:57;;;;;;;3.58;0.40;;;;;;;14.14;54.66;99831.50;5341182;26;20068;-82
2021/05/18 03:42:32;;;;;;;4.35;0.70;;;;;;;14.14;54.87;99836.78;5340956;26;20111;-80
2021/05/18 03:58:53;;;;;;;0.68;0.40;;;;;;;15.87;51.17;99825.00;5343113;26;20098;-82
2021/05/18 04:04:59;;;;;;;3.08;0.43;;;;;;;18.25;43.39;99820.50;5341468;26;20063;-82
2021/05/18 04:48:46;;;;;;;0.73;0.25;;;;;;;21.16;36.02;99855.13;5208623;27;20106;-82
2021/05/18 04:51:33;;;;;;;2.37;0.20;;;;;;;22.38;34.06;99854.88;5208816;27;20077;-82
2021/05/18 05:00:06;;;;;;;;;;;;;;;25.42;28.45;99849.94;5245051;27;20054;-83
2021/05/18 05:25:05;;;;;;;1.50;0.70;;;;;;;28.32;25.84;99864.78;5143163;27;20041;-81
2021/05/18 05:27:31;;;;;;;2.22;0.65;;;;;;;28.26;24.10;99876.12;5263349;27;20368;-82
2021/05/18 05:30:00;;;;;;;2.53;0.80;;;;;;;27.61;25.59;99872.72;5305295;27;20049;-82
2021/05/18 05:32:27;;;;;;;2.28;0.80;;;;;;;26.62;27.21;99876.44;5345527;26;20127;-82
2021/05/18 05:34:55;;;;;;;1.15;0.40;;;;;;;26.17;27.71;99873.72;5326828;26;20028;-82
2021/05/18 05:37:23;;;;;;;1.42;0.60;;;;;;;25.12;28.14;99880.81;5346615;26;20052;-82
2021/05/18 05:39:50;;;;;;;1.33;0.37;;;;;;;24.73;29.53;99892.66;5344343;26;20048;-82
2021/05/18 05:42:18;;;;;;;3.37;1.10;;;;;;;23.74;31.03;99894.19;5344508;26;20076;-82
2021/05/18 05:44:46;;;;;;;5.30;0.50;;;;;;;23.48;31.89;99897.75;5341928;26;20071;-81
2021/05/18 05:47:13;;;;;;;2.05;0.75;;;;;;;23.19;32.36;99889.81;5340763;26;20546;-82
2021/05/18 05:49:40;;;;;;;2.03;0.50;;;;;;;22.66;33.34;99904.88;5346722;26;20064;-82
2021/05/18 05:52:17;;;;;;;4.25;1.08;;;;;;;22.34;34.31;99902.37;5346972;26;20105;-83
2021/05/18 05:54:56;;;;;;;9.07;1.98;;;;;;;22.01;34.87;99902.63;5339627;26;20058;-82
2021/05/18 06:01:38;;;;;;;3.53;0.90;;;;;;;21.61;36.07;99899.69;5337169;26;20052;-83
2021/05/18 06:04:24;;;;;;;4.10;2.00;;;;;;;22.93;33.90;99910.25;5326843;26;20110;-82
2021/05/18 06:07:28;;;;;;;3.35;1.40;;;;;;;23.51;32.79;99905.59;5234955;27;20073;-83
2021/05/18 06:16:34;;;;;;;4.37;2.83;;;;;;;23.83;33.72;99910.63;5251001;27;20066;-84
2021/05/18 06:48:25;;;;;;;2.78;0.50;;;;;;;26.12;27.67;99945.91;5210396;27;20770;-82
2021/05/18 07:03:10;;;;;;;;;;;;;;;;;;;;;
2021/05/18 07:06:39;;;;;;;1.67;0.30;;;;;;;25.03;29.26;99960.31;5318894;27;20406;-84
2021/05/18 07:09:09;;;;;;;2.25;0.30;;;;;;;24.10;31.15;99959.69;5229335;27;20062;-82
2021/05/18 07:12:08;;;;;;;0.75;0.30;;;;;;;23.87;29.33;99963.94;5215674;27;20069;-83
2021/05/18 07:14:52;;;;;;;2.10;0.50;;;;;;;24.02;29.71;99962.03;5264913;27;20745;-84
2021/05/18 07:17:20;;;;;;;3.62;0.75;;;;;;;23.92;29.69;99969.03;5301513;27;20029;-84
2021/05/18 07:20:20;;;;;;;;;;;;;;;;;;;;;
2021/05/18 07:23:53;;;;;;;6.80;0.90;;;;;;;23.22;31.28;99964.66;5321070;27;20087;-83
2021/05/18 07:26:46;;;;;;;3.22;0.62;;;;;;;23.49;30.67;99975.38;5303183;27;20061;-83
2021/05/18 07:29:41;;;;;;;0.37;0.28;;;;;;;23.43;32.40;99972.25;5300884;27;20053;-85
2021/05/18 07:36:15;;;;;;;1.58;0.70;;;;;;;23.92;32.99;99963.66;5330095;26;20702;-84
2021/05/18 07:38:52;;;;;;;1.95;0.32;;;;;;;24.51;31.18;99965.88;5335628;26;20052;-82
2021/05/18 07:41:26;;;;;;;4.18;0.60;;;;;;;24.39;30.73;99962.19;5322530;26;20060;-83
2021/05/18 07:47:43;;;;;;;2.25;0.90;;;;;;;25.41;28.66;99961.16;5326384;26;20060;-84
2021/05/18 08:10:09;;;;;;;1.58;0.60;;;;;;;27.28;25.38;99955.50;5316360;27;20071;-82
2021/05/18 08:12:54;;;;;;;0.62;0.15;;;;;;;28.04;25.40;99964.44;5300223;27;20160;-83
2021/05/18 10:27:10;;;;;;;3.17;0.45;;;;;;;27.23;27.05;100003.56;5344590;26;20110;-82
2021/05/18 10:35:17;;;;;;;0.37;0.10;;;;;;;27.44;26.31;100000.94;5344327;26;20032;-83
2021/05/18 10:38:15;;;;;;;0.62;0.20;;;;;;;27.14;26.20;99990.81;5341602;26;20056;-83
2021/05/18 10:40:42;;;;;;;0.85;0.10;;;;;;;27.64;27.87;99988.50;5343530;26;20060;-83
2021/05/18 10:47:02;;;;;;;1.85;0.20;;;;;;;27.39;26.04;99987.84;5312427;26;20057;-84
2021/05/18 10:49:53;;;;;;;1.20;0.10;;;;;;;28.22;27.94;99983.59;5327586;26;20052;-83
2021/05/18 10:52:36;;;;;;;;;;;;;;;28.68;23.69;99965.25;5343656;26;20080;-83
2021/05/18 10:55:08;;;;;;;1.12;0.40;;;;;;;28.98;25.58;99964.38;5346002;26;20248;-84
2021/05/18 10:57:37;;;;;;;5.45;0.65;;;;;;;29.00;23.86;99962.34;5342250;26;20067;-82
2021/05/18 11:00:08;;;;;;;1.45;0.28;;;;;;;27.48;25.43;99966.50;5342646;26;20116;-83
2021/05/18 11:02:38;;;;;;;1.95;0.20;;;;;;;27.30;24.75;99944.59;5343335;26;20110;-82
2021/05/18 11:05:05;;;;;;;;;;;;;;;27.04;25.51;99952.97;5343230;26;20082;-83
2021/05/18 11:07:47;;;;;;;2.05;0.62;;;;;;;27.67;25.71;99945.06;5343342;26;19936;-82
2021/05/18 11:10:16;;;;;;;2.15;0.30;;;;;;;27.48;27.70;99940.37;5342949;26;20053;-82
2021/05/18 11:12:54;;;;;;;3.37;0.55;;;;;;;27.83;24.76;99933.88;5344764;26;20425;-83
2021/05/18 11:15:23;;;;;;;1.60;0.50;;;;;;;27.32;26.42;99942.63;5342965;26;20128;-82
2021/05/18 11:17:52;;;;;;;3.83;0.93;;;;;;;27.19;26.44;99940.09;5343132;26;20535;-83
2021/05/18 11:20:56;;;;;;;1.65;0.13;;;;;;;27.32;25.54;99940.78;5340900;26;20060;-83
2021/05/18 11:23:31;;;;;;;0.52;0.10;;;;;;;27.05;25.39;99940.31;5341262;26;20128;-83
2021/05/18 11:26:12;;;;;;;2.15;0.40;;;;;;;26.72;26.66;99945.63;5345059;26;20186;-82
2021/05/18 11:29:20;;;;;;;1.92;0.30;;;;;;;26.35;27.11;99947.66;5343809;26;20155;-84
2021/05/18 11:32:08;;;;;;;2.15;0.73;;;;;;;26.31;28.02;99956.97;5342922;26;20048;-83
2021/05/18 11:35:02;;;;;;;0.70;0.40;;;;;;;24.81;28.54;99950.25;5342261;26;20072;-83
2021/05/18 11:37:38;;;;;;;0.85;0.30;;;;;;;24.46;28.84;99944.69;5340856;26;20086;-83
2021/05/18 11:40:08;;;;;;;3.95;1.00;;;;;;;24.49;30.44;99952.53;5342108;26;20421;-83
2021/05/18 11:42:38;;;;;;;5.05;1.02;;;;;;;24.45;29.71;99962.66;5340776;26;20125;-83
2021/05/18 11:45:10;;;;;;;12.00;0.80;;;;;;;23.59;30.20;99962.25;5342151;26;20061;-85
2021/05/18 11:47:43;;;;;;;2.22;0.50;;;;;;;24.03;29.91;99961.97;5341049;26;20477;-83
2021/05/18 11:50:26;;;;;;;0.45;0.20;;;;;;;24.12;29.28;99960.47;5342203;26;20070;-84
2021/05/18 11:52:54;;;;;;;2.00;0.82;;;;;;;23.87;30.67;99958.59;5342125;26;20119;-84
2021/05/18 11:55:36;;;;;;;1.33;0.50;;;;;;;24.59;30.05;99960.78;5340699;26;20084;-83
2021/05/18 11:58:20;;;;;;;1.80;0.60;;;;;;;24.88;30.49;99958.72;5342551;26;20066;-84
2021/05/18 12:01:08;;;;;;;2.50;0.10;;;;;;;25.03;29.78;99963.00;5342206;26;20422;-83
2021/05/18 12:03:39;;;;;;;2.30;0.40;;;;;;;25.51;28.77;99954.97;5323404;26;20386;-84
2021/05/18 12:06:14;;;;;;;1.08;0.37;;;;;;;25.24;28.37;99957.06;5341962;26;20520;-84
2021/05/18 12:08:41;;;;;;;0.90;0.30;;;;;;;25.78;28.06;99953.88;5342274;26;20146;-84
2021/05/18 12:11:20;;;;;;;0.50;0.20;;;;;;;25.03;28.65;99946.88;5341691;26;20064;-84
2021/05/18 12:13:49;;;;;;;2.05;0.17;;;;;;;25.38;28.65;99956.84;5341903;26;20061;-84
2021/05/18 12:16:19;;;;;;;1.62;0.40;;;;;;;24.81;29.63;99954.75;5322373;26;20189;-84
2021/05/18 12:19:03;;;;;;;1.55;0.15;;;;;;;24.40;29.47;99953.16;5321889;26;20347;-83
2021/05/18 12:21:52;;;;;;;1.48;0.32;;;;;;;24.72;30.19;99955.44;5342046;26;20061;-84
2021/05/18 12:24:55;;;;;;;0.20;0.10;;;;;;;25.38;29.39;99951.47;5322200;26;20327;-83
2021/05/18 12:27:45;;;;;;;0.20;0.13;;;;;;;26.18;28.13;99943.62;5326280;26;20114;-84
2021/05/18 12:30:33;;;;;;;1.45;0.22;;;;;;;26.58;27.75;99947.72;5321231;26;20110;-84
2021/05/18 12:33:10;;;;;;;0.30;0.10;;;;;;;27.14;28.32;99939.56;5344666;26;20055;-83
2021/05/18 12:36:11;;;;;;;2.80;0.40;;;;;;;27.68;25.37;99936.00;5322322;26;20063;-85
2021/05/18 12:39:22;;;;;;;4.57;1.00;;;;;;;28.41;26.01;99936.06;5284144;26;20110;-86
2021/05/18 12:42:43;;;;;;;2.10;0.50;;;;;;;28.90;26.46;99932.59;5234836;27;20081;-85
2021/05/18 12:45:50;;;;;;;3.08;1.12;;;;;;;29.45;25.28;99925.91;5163729;27;20093;-86
2021/05/18 12:49:16;;;;;;;;;;;;;;;;;;;;;
2021/05/18 12:52:15;;;;;;;2.75;2.55;;;;;;;29.65;23.28;99938.47;5165151;27;20495;-84
2021/05/18 12:54:42;;;;;;;0.37;0.20;;;;;;;30.10;22.25;99927.00;5163420;27;20717;-84
2021/05/18 12:57:14;;;;;;;2.25;0.50;;;;;;;30.46;22.10;99936.19;5165685;27;20079;-82
2021/05/18 13:00:15;;;;;;;1.05;0.52;;;;;;;30.92;21.36;99929.03;5165102;27;20094;-85
2021/05/18 13:02:53;;;;;;;2.40;0.20;;;;;;;30.98;22.23;99933.84;5166853;27;20272;-83
2021/05/18 13:05:32;;;;;;;2.03;0.13;;;;;;;30.19;21.29;99936.12;5165585;27;20068;-84
2021/05/18 13:08:07;;;;;;;2.05;0.10;;;;;;;29.91;24.44;99929.75;5167580;27;20128;-84
2021/05/18 13:11:11;;;;;;;0.35;0.10;;;;;;;28.86;24.23;99930.31;5184031;27;20691;-84
2021/05/18 13:14:15;;;;;;;0.88;0.45;;;;;;;28.83;24.87;99930.59;5168343;27;20090;-84
2021/05/18 13:16:58;;;;;;;;;;;;;;;;;;;;;
2021/05/18 13:19:58;;;;;;;0.50;0.13;;;;;;;27.83;25.14;99932.03;5213647;27;20058;-83
2021/05/18 13:22:53;;;;;;;2.00;1.00;;;;;;;27.35;23.80;99923.47;5288621;26;20063;-84
2021/05/18 13:28:25;;;;;;;1.42;0.20;;;;;;;26.78;24.75;99930.81;5343862;26;20107;-81
2021/05/18 13:30:56;;;;;;;4.05;0.70;;;;;;;27.33;24.46;99923.63;5343048;26;20044;-83
2021/05/18 13:33:33;;;;;;;1.30;0.52;;;;;;;27.88;24.26;99911.88;5342095;26;20078;-83
2021/05/18 13:36:21;;;;;;;0.70;0.40;;;;;;;27.51;25.67;99920.38;5342000;26;20119;-84
2021/05/18 13:39:09;;;;;;;0.68;0.20;;;;;;;28.09;24.04;99912.72;5341265;26;20506;-84
2021/05/18 13:41:48;;;;;;;1.27;0.62;;;;;;;28.06;23.40;99910.28;5345081;26;20048;-83
2021/05/18 13:44:48;;;;;;;0.45;0.20;;;;;;;27.56;25.06;99907.31;5328078;26;20099;-84
2021/05/18 13:47:24;;;;;;;1.25;0.10;;;;;;;27.34;23.52;99909.13;5341863;26;20159;-82
2021/05/18 13:50:19;;;;;;;5.77;0.43;;;;;;;27.26;26.26;99908.91;5342876;26;20029;-84
2021/05/18 13:52:46;;;;;;;1.02;0.35;;;;;;;27.58;24.92;99905.38;5345257;26;20056;-83
2021/05/18 13:55:24;;;;;;;1.10;0.45;;;;;;;27.39;25.42;99906.06;5341966;26;20075;-84
2021/05/18 13:58:03;;;;;;;7.35;0.50;;;;;;;27.93;23.55;99901.53;5341877;26;20091;-83
2021/05/18 14:00:32;;;;;;;0.50;0.10;;;;;;;26.18;25.53;99921.22;5340760;26;20106;-79
2021/05/18 14:03:07;;;;;;;0.20;0.10;;;;;;;26.31;24.97;99907.66;5342548;26;20062;-83
2021/05/18 14:05:42;;;;;;;0.65;0.22;;;;;;;26.49;25.40;99901.66;5344040;26;20021;-82
2021/05/18 14:08:48;;;;;;;2.15;0.98;;;;;;;26.65;24.98;99901.31;5342110;26;20083;-83
2021/05/18 14:11:23;;;;;;;1.85;0.20;;;;;;;26.40;26.92;99912.28;5249570;27;20087;-84
2021/05/18 14:13:55;;;;;;;1.85;0.20;;;;;;;27.04;25.33;99900.88;5249592;27;20096;-82
2021/05/18 14:16:23;;;;;;;0.95;0.25;;;;;;;25.55;28.03;99913.41;5303278;26;20071;-82
2021/05/18 14:18:54;;;;;;;1.45;0.20;;;;;;;25.02;28.74;99925.47;5341838;26;20060;-83
2021/05/18 14:21:25;;;;;;;3.15;0.30;;;;;;;24.09;31.09;99920.41;5342428;26;20090;-81
2021/05/18 14:26:26;;;;;;;0.52;0.28;;;;;;;23.59;33.67;99905.94;5342135;26;20057;-82
2021/05/18 14:28:53;;;;;;;0.62;0.30;;;;;;;23.30;33.71;99908.75;5334236;26;159353;-82
2021/05/18 14:31:21;;;;;;;2.05;0.60;;;;;;;23.18;33.55;99911.34;5339192;26;20084;-82
2021/05/18 14:33:49;;;;;;;0.43;0.10;;;;;;;23.85;33.74;99901.47;5341430;26;20096;-81
2021/05/18 14:36:16;;;;;;;1.85;0.20;;;;;;;23.31;34.31;99905.09;5341595;26;20132;-81
2021/05/18 14:39:05;;;;;;;0.88;0.10;;;;;;;23.27;33.04;99903.59;5342260;26;20541;-81
2021/05/18 14:44:25;;;;;;;0.20;0.20;;;;;;;22.98;33.08;99915.38;5342567;26;20075;-81
2021/05/18 14:55:44;;;;;;;2.83;0.35;;;;;;;23.47;31.26;99910.31;5317004;27;20073;-82
2021/05/18 14:58:14;;;;;;;0.57;0.30;;;;;;;24.23;31.19;99916.75;5331978;26;20091;-83
2021/05/18 15:00:42;;;;;;;0.57;0.08;;;;;;;23.31;31.66;99907.78;5341590;26;20060;-82
2021/05/18 15:03:09;;;;;;;2.28;0.20;;;;;;;23.39;31.52;99901.06;5341675;26;20316;-83
2021/05/18 15:05:39;;;;;;;1.25;0.60;;;;;;;23.95;31.78;99907.94;5341878;26;20331;-83
2021/05/18 15:08:07;;;;;;;;;;;;;;;24.41;30.59;99904.75;5341874;26;20170;-83
2021/05/18 15:10:34;;;;;;;1.83;0.32;;;;;;;23.88;30.71;99903.09;5341725;26;19981;-82
2021/05/18 15:13:02;;;;;;;0.32;0.10;;;;;;;23.30;31.37;99906.06;5341645;26;20101;-82
2021/05/18 15:15:30;;;;;;;1.98;0.20;;;;;;;23.69;30.73;99898.12;5341851;26;20057;-83
2021/05/18 15:17:58;;;;;;;0.95;0.30;;;;;;;23.68;32.50;99902.63;5341504;26;20418;-83
2021/05/18 15:20:26;;;;;;;0.77;0.10;;;;;;;23.44;31.12;99896.22;5342697;26;20407;-82
2021/05/18 15:22:53;;;;;;;3.25;0.37;;;;;;;22.52;32.39;99910.22;5342607;26;20201;-82
2021/05/18 15:25:21;;;;;;;0.22;0.20;;;;;;;23.18;31.80;99909.56;5342750;26;20060;-82
2021/05/18 15:27:48;;;;;;;2.05;0.32;;;;;;;22.67;32.85;99906.56;5342589;26;20101;-82
2021/05/18 15:30:16;;;;;;;0.40;0.20;;;;;;;22.23;34.17;99904.88;5342921;26;20438;-83
2021/05/18 15:32:44;;;;;;;0.45;0.15;;;;;;;23.13;32.52;99900.97;5342786;26;20117;-83
2021/05/18 15:35:14;;;;;;;0.40;0.20;;;;;;;22.32;33.50;99903.44;5341728;26;20083;-82
2021/05/18 15:37:43;;;;;;;2.17;0.43;;;;;;;23.11;32.60;99894.81;5342447;26;20060;-82
2021/05/18 15:40:12;;;;;;;0.45;0.40;;;;;;;22.89;33.37;99888.16;5342764;26;20071;-82
2021/05/18 15:42:40;;;;;;;0.55;0.28;;;;;;;22.35;33.32;99892.53;5342839;26;20075;-82
2021/05/18 15:45:08;;;;;;;1.08;0.25;;;;;;;22.44;33.21;99890.16;5341407;26;20056;-83
2021/05/18 15:47:36;;;;;;;0.50;0.20;;;;;;;22.96;32.65;99891.34;5342539;26;20088;-82
2021/05/18 15:50:07;;;;;;;0.40;0.30;;;;;;;22.20;33.66;99889.88;5341185;26;20065;-82
2021/05/18 15:52:36;;;;;;;8.23;2.92;;;;;;;22.16;33.93;99898.16;5342665;26;20123;-82
2021/05/18 15:55:04;;;;;;;0.15;0.10;;;;;;;22.07;34.34;99898.72;5342936;26;20064;-82
2021/05/18 15:57:31;;;;;;;2.40;0.10;;;;;;;21.93;33.10;99903.09;5341235;26;20491;-81
2021/05/18 15:59:58;;;;;;;1.00;0.13;;;;;;;21.33;33.99;99903.09;5342634;26;20370;-82
2021/05/18 16:02:25;;;;;;;0.10;0.10;;;;;;;21.49;33.76;99897.72;5342852;26;20116;-82
2021/05/18 16:04:53;;;;;;;2.65;0.15;;;;;;;22.05;33.45;99909.50;5342737;26;20324;-83
2021/05/18 16:07:21;;;;;;;1.17;0.20;;;;;;;21.66;32.86;99902.94;5342869;26;20053;-82
2021/05/18 16:09:50;;;;;;;0.98;0.30;;;;;;;22.06;33.27;99907.69;5343027;26;20061;-82
2021/05/18 16:12:19;;;;;;;0.20;0.20;;;;;;;22.22;33.32;99901.34;5342894;26;20114;-82
2021/05/18 16:14:48;;;;;;;0.52;0.13;;;;;;;22.19;33.77;99903.34;5341372;26;20151;-83
2021/05/18 16:17:20;;;;;;;0.80;0.20;;;;;;;21.54;33.21;99899.19;5342519;26;20070;-82
2021/05/18 16:19:48;;;;;;;1.37;0.35;;;;;;;21.59;32.47;99903.38;5342426;26;20060;-82
2021/05/18 16:22:15;;;;;;;1.17;0.50;;;;;;;22.16;32.25;99906.19;5342608;26;20061;-82
2021/05/18 16:24:43;;;;;;;0.40;0.30;;;;;;;22.07;33.17;99912.97;5341116;26;20333;-82
2021/05/18 16:27:15;;;;;;;2.28;0.25;;;;;;;22.04;32.64;99909.63;5341128;26;20056;-82
2021/05/18 16:29:43;;;;;;;2.12;0.90;;;;;;;21.43;32.52;99922.16;5342600;26;20060;-82
2021/05/18 16:32:11;;;;;;;1.45;0.93;;;;;;;20.82;34.11;99923.78;5342649;26;20403;-83
2021/05/18 16:34:38;;;;;;;2.30;1.10;;;;;;;21.27;33.19;99924.81;5342261;26;20118;-82
2021/05/18 16:37:05;;;;;;;3.00;1.50;;;;;;;21.39;33.46;99933.97;5342503;26;20052;-82
2021/05/18 16:39:32;;;;;;;1.35;0.80;;;;;;;21.91;32.98;99937.12;5342551;26;20055;-82
2021/05/18 16:41:59;;;;;;;1.02;0.32;;;;;;;21.63;33.60;99937.03;5342558;26;20468;-84
2021/05/18 16:44:26;;;;;;;0.25;0.20;;;;;;;22.21;32.53;99941.59;5359534;26;20176;-82
2021/05/18 16:46:54;;;;;;;0.45;0.20;;;;;;;21.76;33.09;99938.00;5342361;26;20136;-83
2021/05/18 16:49:21;;;;;;;1.27;0.70;;;;;;;21.87;33.20;99938.22;5359287;26;20197;-82
2021/05/18 16:51:48;;;;;;;1.95;0.88;;;;;;;21.26;34.32;99942.63;5342588;26;20067;-82
2021/05/18 16:54:17;;;;;;;5.50;1.58;;;;;;;21.33;34.33;99937.81;5342433;26;20049;-82
2021/05/18 16:56:46;;;;;;;4.03;2.15;;;;;;;21.27;34.64;99939.03;5341064;26;20058;-84
2021/05/18 16:59:13;;;;;;;3.33;1.80;;;;;;;21.76;34.11;99943.34;5340946;26;20484;-82
2021/05/18 17:01:40;;;;;;;0.88;0.47;;;;;;;21.90;33.51;99935.38;5342602;26;20378;-83
2021/05/18 17:04:12;;;;;;;1.33;0.47;;;;;;;21.60;34.03;99943.41;5342517;26;20064;-83
2021/05/18 17:06:40;;;;;;;2.28;0.80;;;;;;;21.85;33.22;99937.44;5342442;26;20048;-82
2021/05/18 17:09:08;;;;;;;3.50;1.20;;;;;;;21.90;33.71;99946.06;5342379;26;20079;-82
2021/05/18 17:11:36;;;;;;;1.25;0.80;;;;;;;21.95;33.86;99941.31;5342189;26;20056;-83
2021/05/18 17:14:04;;;;;;;2.65;0.90;;;;;;;21.78;33.31;99952.16;5342330;26;20064;-82
2021/05/18 17:16:32;;;;;;;1.65;0.70;;;;;;;22.12;33.18;99953.69;5342368;26;20054;-82
2021/05/18 17:18:59;;;;;;;2.53;0.70;;;;;;;22.22;33.93;99954.00;5342354;26;20311;-82
2021/05/18 17:21:26;;;;;;;1.55;1.02;;;;;;;22.44;32.71;99956.19;5342258;26;20108;-82
2021/05/18 17:23:53;;;;;;;1.48;0.65;;;;;;;22.48;33.38;99957.75;5342333;26;20047;-83
2021/05/18 17:26:20;;;;;;;1.62;0.60;;;;;;;22.65;32.23;99964.75;5342333;26;20056;-83
2021/05/18 17:28:47;;;;;;;2.70;0.40;;;;;;;22.46;33.46;99965.00;5342534;26;20056;-82
2021/05/18 17:31:15;;;;;;;1.15;0.60;;;;;;;22.58;33.26;99963.37;5342251;26;20596;-82
2021/05/18 17:33:43;;;;;;;1.85;0.70;;;;;;;22.59;33.10;99973.13;5342419;26;20052;-83
2021/05/18 17:36:10;;;;;;;1.00;0.65;;;;;;;22.59;33.25;99973.13;5342189;26;20105;-82
2021/05/18 17:38:38;;;;;;;1.40;0.70;;;;;;;22.63;33.11;99966.62;5342309;26;20137;-82
2021/05/18 17:41:05;;;;;;;1.35;0.60;;;;;;;22.70;33.02;99967.97;5341919;26;20092;-82
2021/05/18 17:43:33;;;;;;;4.68;0.60;;;;;;;22.80;32.78;99958.41;5342284;26;20390;-82
2021/05/18 17:46:02;;;;;;;2.12;0.60;;;;;;;22.97;32.13;99961.84;5342547;26;20113;-82
2021/05/18 17:48:30;;;;;;;2.53;0.93;;;;;;;23.09;31.54;99955.72;5342064;26;20065;-83
2021/05/18 17:50:57;;;;;;;3.85;1.60;;;;;;;23.02;31.70;99947.19;5342243;26;20153;-82
2021/05/18 17:53:24;;;;;;;6.12;1.55;;;;;;;22.98;31.86;99951.03;5342035;26;20072;-82